sensor_id;sensor_type;location;lat;lon;timestamp;temperature;humidity
18611;DHT22;9435;52.122;5.502;2022-07-29T00:01:49;15.90;99.90
18611;DHT22;9435;52.122;5.502;2022-07-29T00:04:17;15.90;99.90
18611;DHT22;9435;52.122;5.502;2022-07-29T00:06:44;15.80;99.90
18611;DHT22;9435;52.122;5.502;2022-07-29T00:09:11;15.80;99.90
18611;DHT22;9435;52.122;5.502;2022-07-29T00:11:40;15.70;99.90
18611;DHT22;9435;52.122;5.502;2022-07-29T00:14:07;15.70;99.90
18611;DHT22;9435;52.122;5.502;2022-07-29T00:16:34;15.70;99.90
18611;DHT22;9435;52.122;5.502;2022-07-29T00:19:02;15.70;99.90
18611;DHT22;9435;52.122;5.502;2022-07-29T00:21:29;15.60;99.90
18611;DHT22;9435;52.122;5.502;2022-07-29T00:23:56;15.60;99.90
18611;DHT22;9435;52.122;5.502;2022-07-29T00:26:23;15.50;99.90
18611;DHT22;9435;52.122;5.502;2022-07-29T00:28:52;15.50;99.90
18611;DHT22;9435;52.122;5.502;2022-07-29T00:31:19;15.40;99.90
18611;DHT22;9435;52.122;5.502;2022-07-29T00:33:46;15.40;99.90
18611;DHT22;9435;52.122;5.502;2022-07-29T00:36:13;15.40;99.90
18611;DHT22;9435;52.122;5.502;2022-07-29T00:38:39;15.40;99.90
18611;DHT22;9435;52.122;5.502;2022-07-29T00:41:09;15.40;99.90
18611;DHT22;9435;52.122;5.502;2022-07-29T00:43:37;15.40;99.90
18611;DHT22;9435;52.122;5.502;2022-07-29T00:46:05;15.40;99.90
18611;DHT22;9435;52.122;5.502;2022-07-29T00:48:32;15.50;99.90
18611;DHT22;9435;52.122;5.502;2022-07-29T00:51:01;15.50;99.90
18611;DHT22;9435;52.122;5.502;2022-07-29T00:53:29;15.40;99.90
18611;DHT22;9435;52.122;5.502;2022-07-29T00:55:57;15.40;99.90
18611;DHT22;9435;52.122;5.502;2022-07-29T00:58:24;15.50;99.90
18611;DHT22;9435;52.122;5.502;2022-07-29T01:00:53;15.30;99.90
18611;DHT22;9435;52.122;5.502;2022-07-29T01:03:21;15.30;99.90
18611;DHT22;9435;52.122;5.502;2022-07-29T01:05:48;15.30;99.90
18611;DHT22;9435;52.122;5.502;2022-07-29T01:08:16;15.40;99.90
18611;DHT22;9435;52.122;5.502;2022-07-29T01:10:44;15.30;99.90
18611;DHT22;9435;52.122;5.502;2022-07-29T01:13:12;15.30;99.90
18611;DHT22;9435;52.122;5.502;2022-07-29T01:15:44;15.30;99.90
18611;DHT22;9435;52.122;5.502;2022-07-29T01:18:16;15.30;99.90
18611;DHT22;9435;52.122;5.502;2022-07-29T01:21:00;15.30;99.90
18611;DHT22;9435;52.122;5.502;2022-07-29T01:23:48;15.20;99.90
18611;DHT22;9435;52.122;5.502;2022-07-29T01:26:33;15.10;99.90
18611;DHT22;9435;52.122;5.502;2022-07-29T01:29:09;15.10;99.90
18611;DHT22;9435;52.122;5.502;2022-07-29T01:31:43;15.10;99.90
18611;DHT22;9435;52.122;5.502;2022-07-29T01:34:17;15.10;99.90
18611;DHT22;9435;52.122;5.502;2022-07-29T01:36:48;15.20;99.90
18611;DHT22;9435;52.122;5.502;2022-07-29T01:39:19;15.20;99.90
18611;DHT22;9435;52.122;5.502;2022-07-29T01:41:50;15.20;99.90
18611;DHT22;9435;52.122;5.502;2022-07-29T01:44:27;15.20;99.90
18611;DHT22;9435;52.122;5.502;2022-07-29T01:47:00;15.20;99.90
18611;DHT22;9435;52.122;5.502;2022-07-29T01:49:31;15.30;99.90
18611;DHT22;9435;52.122;5.502;2022-07-29T01:52:05;15.20;99.90
18611;DHT22;9435;52.122;5.502;2022-07-29T01:54:35;15.20;99.90
18611;DHT22;9435;52.122;5.502;2022-07-29T01:57:05;15.10;99.90
18611;DHT22;9435;52.122;5.502;2022-07-29T01:59:36;15.20;99.90
18611;DHT22;9435;52.122;5.502;2022-07-29T02:02:05;15.10;99.90
18611;DHT22;9435;52.122;5.502;2022-07-29T02:04:35;15.20;99.90
18611;DHT22;9435;52.122;5.502;2022-07-29T02:07:05;15.10;99.90
18611;DHT22;9435;52.122;5.502;2022-07-29T02:09:36;15.20;99.90
18611;DHT22;9435;52.122;5.502;2022-07-29T02:12:04;15.20;99.90
18611;DHT22;9435;52.122;5.502;2022-07-29T02:14:36;15.20;99.90
18611;DHT22;9435;52.122;5.502;2022-07-29T02:17:04;15.00;99.90
18611;DHT22;9435;52.122;5.502;2022-07-29T02:19:32;15.00;99.90
18611;DHT22;9435;52.122;5.502;2022-07-29T02:22:00;15.00;99.90
18611;DHT22;9435;52.122;5.502;2022-07-29T02:24:28;15.00;99.90
18611;DHT22;9435;52.122;5.502;2022-07-29T02:26:56;15.00;99.90
18611;DHT22;9435;52.122;5.502;2022-07-29T02:29:26;15.10;99.90
18611;DHT22;9435;52.122;5.502;2022-07-29T02:31:57;15.10;99.90
18611;DHT22;9435;52.122;5.502;2022-07-29T02:34:25;15.10;99.90
18611;DHT22;9435;52.122;5.502;2022-07-29T02:36:52;15.10;99.90
18611;DHT22;9435;52.122;5.502;2022-07-29T02:39:22;15.10;99.90
18611;DHT22;9435;52.122;5.502;2022-07-29T02:41:51;15.10;99.90
18611;DHT22;9435;52.122;5.502;2022-07-29T02:44:20;15.10;99.90
18611;DHT22;9435;52.122;5.502;2022-07-29T02:46:51;15.00;99.90
18611;DHT22;9435;52.122;5.502;2022-07-29T02:49:31;15.00;99.90
18611;DHT22;9435;52.122;5.502;2022-07-29T02:52:02;14.90;99.90
18611;DHT22;9435;52.122;5.502;2022-07-29T02:54:33;14.90;99.90
18611;DHT22;9435;52.122;5.502;2022-07-29T02:57:09;14.90;99.90
18611;DHT22;9435;52.122;5.502;2022-07-29T02:59:36;14.90;99.90
18611;DHT22;9435;52.122;5.502;2022-07-29T03:02:06;14.90;99.90
18611;DHT22;9435;52.122;5.502;2022-07-29T03:04:36;15.00;99.90
18611;DHT22;9435;52.122;5.502;2022-07-29T03:07:04;15.10;99.90
18611;DHT22;9435;52.122;5.502;2022-07-29T03:09:31;15.10;99.90
18611;DHT22;9435;52.122;5.502;2022-07-29T03:12:00;15.10;99.90
18611;DHT22;9435;52.122;5.502;2022-07-29T03:14:28;15.00;99.90
18611;DHT22;9435;52.122;5.502;2022-07-29T03:16:56;15.00;99.90
18611;DHT22;9435;52.122;5.502;2022-07-29T03:19:24;14.80;99.90
18611;DHT22;9435;52.122;5.502;2022-07-29T03:21:52;14.80;99.90
18611;DHT22;9435;52.122;5.502;2022-07-29T03:24:30;14.80;99.90
18611;DHT22;9435;52.122;5.502;2022-07-29T03:26:58;14.80;99.90
18611;DHT22;9435;52.122;5.502;2022-07-29T03:29:25;14.80;99.90
18611;DHT22;9435;52.122;5.502;2022-07-29T03:31:53;14.80;99.90
18611;DHT22;9435;52.122;5.502;2022-07-29T03:34:20;14.80;99.90
18611;DHT22;9435;52.122;5.502;2022-07-29T03:36:47;14.80;99.90
18611;DHT22;9435;52.122;5.502;2022-07-29T03:39:18;14.80;99.90
18611;DHT22;9435;52.122;5.502;2022-07-29T03:41:48;14.90;99.90
18611;DHT22;9435;52.122;5.502;2022-07-29T03:44:18;14.90;99.90
18611;DHT22;9435;52.122;5.502;2022-07-29T03:46:46;14.90;99.90
18611;DHT22;9435;52.122;5.502;2022-07-29T03:49:16;14.80;99.90
18611;DHT22;9435;52.122;5.502;2022-07-29T03:51:43;14.80;99.90
18611;DHT22;9435;52.122;5.502;2022-07-29T03:54:11;14.80;99.90
18611;DHT22;9435;52.122;5.502;2022-07-29T03:56:42;14.70;99.90
18611;DHT22;9435;52.122;5.502;2022-07-29T03:59:13;14.80;99.90
18611;DHT22;9435;52.122;5.502;2022-07-29T04:01:41;14.80;99.90
18611;DHT22;9435;52.122;5.502;2022-07-29T04:04:08;14.70;99.90
18611;DHT22;9435;52.122;5.502;2022-07-29T04:06:40;14.70;99.90
18611;DHT22;9435;52.122;5.502;2022-07-29T04:09:07;14.80;99.90
18611;DHT22;9435;52.122;5.502;2022-07-29T04:11:36;14.90;99.90
18611;DHT22;9435;52.122;5.502;2022-07-29T04:14:04;14.90;99.90
18611;DHT22;9435;52.122;5.502;2022-07-29T04:16:31;14.90;99.90
18611;DHT22;9435;52.122;5.502;2022-07-29T04:18:59;15.00;99.90
18611;DHT22;9435;52.122;5.502;2022-07-29T04:21:26;14.90;99.90
18611;DHT22;9435;52.122;5.502;2022-07-29T04:23:53;15.00;99.90
18611;DHT22;9435;52.122;5.502;2022-07-29T04:26:20;15.00;99.90
18611;DHT22;9435;52.122;5.502;2022-07-29T04:28:47;15.00;99.90
18611;DHT22;9435;52.122;5.502;2022-07-29T04:31:15;14.90;99.90
18611;DHT22;9435;52.122;5.502;2022-07-29T04:33:42;14.90;99.90
18611;DHT22;9435;52.122;5.502;2022-07-29T04:36:09;14.70;99.90
18611;DHT22;9435;52.122;5.502;2022-07-29T04:38:38;14.70;99.90
18611;DHT22;9435;52.122;5.502;2022-07-29T04:41:05;14.70;99.90
18611;DHT22;9435;52.122;5.502;2022-07-29T04:43:34;14.60;99.90
18611;DHT22;9435;52.122;5.502;2022-07-29T04:46:01;14.50;99.90
18611;DHT22;9435;52.122;5.502;2022-07-29T04:48:29;14.50;99.90
18611;DHT22;9435;52.122;5.502;2022-07-29T04:50:56;14.60;99.90
18611;DHT22;9435;52.122;5.502;2022-07-29T04:53:24;14.60;99.90
18611;DHT22;9435;52.122;5.502;2022-07-29T04:55:51;14.70;99.90
18611;DHT22;9435;52.122;5.502;2022-07-29T04:58:18;14.60;99.90
18611;DHT22;9435;52.122;5.502;2022-07-29T05:00:45;14.60;99.90
18611;DHT22;9435;52.122;5.502;2022-07-29T05:03:12;14.50;99.90
18611;DHT22;9435;52.122;5.502;2022-07-29T05:05:41;14.50;99.90
18611;DHT22;9435;52.122;5.502;2022-07-29T05:08:08;14.50;99.90
18611;DHT22;9435;52.122;5.502;2022-07-29T05:10:35;14.60;99.90
18611;DHT22;9435;52.122;5.502;2022-07-29T05:13:04;14.60;99.90
18611;DHT22;9435;52.122;5.502;2022-07-29T05:15:32;14.60;99.90
18611;DHT22;9435;52.122;5.502;2022-07-29T05:17:59;14.70;99.90
18611;DHT22;9435;52.122;5.502;2022-07-29T05:20:26;14.70;99.90
18611;DHT22;9435;52.122;5.502;2022-07-29T05:22:56;14.80;99.90
18611;DHT22;9435;52.122;5.502;2022-07-29T05:25:24;14.80;99.90
18611;DHT22;9435;52.122;5.502;2022-07-29T05:27:51;14.90;99.90
18611;DHT22;9435;52.122;5.502;2022-07-29T05:30:19;15.00;99.90
18611;DHT22;9435;52.122;5.502;2022-07-29T05:32:46;15.00;99.90
18611;DHT22;9435;52.122;5.502;2022-07-29T05:35:14;15.10;99.90
18611;DHT22;9435;52.122;5.502;2022-07-29T05:37:42;15.10;99.90
18611;DHT22;9435;52.122;5.502;2022-07-29T05:40:10;15.20;99.90
18611;DHT22;9435;52.122;5.502;2022-07-29T05:42:37;15.20;99.90
18611;DHT22;9435;52.122;5.502;2022-07-29T05:45:05;15.20;99.90
18611;DHT22;9435;52.122;5.502;2022-07-29T05:47:33;15.20;99.90
18611;DHT22;9435;52.122;5.502;2022-07-29T05:50:00;15.30;99.90
18611;DHT22;9435;52.122;5.502;2022-07-29T05:52:27;15.30;99.90
18611;DHT22;9435;52.122;5.502;2022-07-29T05:54:54;15.20;99.90
18611;DHT22;9435;52.122;5.502;2022-07-29T05:57:24;15.10;99.90
18611;DHT22;9435;52.122;5.502;2022-07-29T05:59:51;15.20;99.90
18611;DHT22;9435;52.122;5.502;2022-07-29T06:02:18;15.20;99.90
18611;DHT22;9435;52.122;5.502;2022-07-29T06:04:45;15.30;99.90
18611;DHT22;9435;52.122;5.502;2022-07-29T06:07:12;15.40;99.90
18611;DHT22;9435;52.122;5.502;2022-07-29T06:09:39;15.40;99.90
18611;DHT22;9435;52.122;5.502;2022-07-29T06:12:07;15.40;99.90
18611;DHT22;9435;52.122;5.502;2022-07-29T06:14:35;15.60;99.90
18611;DHT22;9435;52.122;5.502;2022-07-29T06:17:03;15.80;99.90
18611;DHT22;9435;52.122;5.502;2022-07-29T06:19:31;16.00;99.90
18611;DHT22;9435;52.122;5.502;2022-07-29T06:22:00;16.10;99.90
18611;DHT22;9435;52.122;5.502;2022-07-29T06:24:27;16.00;99.90
18611;DHT22;9435;52.122;5.502;2022-07-29T06:26:54;15.80;99.90
18611;DHT22;9435;52.122;5.502;2022-07-29T06:29:21;15.80;99.90
18611;DHT22;9435;52.122;5.502;2022-07-29T06:31:50;15.80;99.90
18611;DHT22;9435;52.122;5.502;2022-07-29T06:34:17;15.90;99.90
18611;DHT22;9435;52.122;5.502;2022-07-29T06:36:44;15.90;99.90
18611;DHT22;9435;52.122;5.502;2022-07-29T06:39:11;15.90;99.90
18611;DHT22;9435;52.122;5.502;2022-07-29T06:41:38;16.00;99.90
18611;DHT22;9435;52.122;5.502;2022-07-29T06:44:05;16.20;99.90
18611;DHT22;9435;52.122;5.502;2022-07-29T06:46:32;16.30;99.90
18611;DHT22;9435;52.122;5.502;2022-07-29T06:49:01;16.50;99.90
18611;DHT22;9435;52.122;5.502;2022-07-29T06:51:28;16.50;99.90
18611;DHT22;9435;52.122;5.502;2022-07-29T06:53:55;16.90;99.90
18611;DHT22;9435;52.122;5.502;2022-07-29T06:56:23;17.10;99.90
18611;DHT22;9435;52.122;5.502;2022-07-29T06:58:50;16.90;99.90
18611;DHT22;9435;52.122;5.502;2022-07-29T07:01:17;17.30;99.90
18611;DHT22;9435;52.122;5.502;2022-07-29T07:03:44;17.70;99.90
18611;DHT22;9435;52.122;5.502;2022-07-29T07:06:12;18.00;99.90
18611;DHT22;9435;52.122;5.502;2022-07-29T07:08:39;18.20;99.90
18611;DHT22;9435;52.122;5.502;2022-07-29T07:11:06;18.10;99.90
18611;DHT22;9435;52.122;5.502;2022-07-29T07:13:33;18.60;99.90
18611;DHT22;9435;52.122;5.502;2022-07-29T07:16:01;18.60;99.90
18611;DHT22;9435;52.122;5.502;2022-07-29T07:18:28;18.50;99.90
18611;DHT22;9435;52.122;5.502;2022-07-29T07:20:56;18.60;99.90
18611;DHT22;9435;52.122;5.502;2022-07-29T07:23:24;18.50;99.90
18611;DHT22;9435;52.122;5.502;2022-07-29T07:25:51;18.50;99.90
18611;DHT22;9435;52.122;5.502;2022-07-29T07:28:18;18.90;99.90
18611;DHT22;9435;52.122;5.502;2022-07-29T07:30:45;18.80;99.90
18611;DHT22;9435;52.122;5.502;2022-07-29T07:33:12;18.90;99.90
18611;DHT22;9435;52.122;5.502;2022-07-29T07:35:40;18.60;99.90
18611;DHT22;9435;52.122;5.502;2022-07-29T07:38:07;18.90;99.90
18611;DHT22;9435;52.122;5.502;2022-07-29T07:40:35;19.30;99.90
18611;DHT22;9435;52.122;5.502;2022-07-29T07:43:02;19.60;99.90
18611;DHT22;9435;52.122;5.502;2022-07-29T07:45:29;19.90;99.90
18611;DHT22;9435;52.122;5.502;2022-07-29T07:47:58;20.40;99.90
18611;DHT22;9435;52.122;5.502;2022-07-29T07:50:25;20.80;99.90
18611;DHT22;9435;52.122;5.502;2022-07-29T07:52:54;20.90;99.90
18611;DHT22;9435;52.122;5.502;2022-07-29T07:55:23;21.00;99.90
18611;DHT22;9435;52.122;5.502;2022-07-29T07:57:52;19.90;99.90
18611;DHT22;9435;52.122;5.502;2022-07-29T08:00:19;19.90;99.90
18611;DHT22;9435;52.122;5.502;2022-07-29T08:02:46;20.20;99.90
18611;DHT22;9435;52.122;5.502;2022-07-29T08:05:14;20.60;99.90
18611;DHT22;9435;52.122;5.502;2022-07-29T08:07:44;20.90;99.90
18611;DHT22;9435;52.122;5.502;2022-07-29T08:10:12;21.30;99.90
18611;DHT22;9435;52.122;5.502;2022-07-29T08:12:39;20.90;99.90
18611;DHT22;9435;52.122;5.502;2022-07-29T08:15:08;21.10;99.90
18611;DHT22;9435;52.122;5.502;2022-07-29T08:17:36;21.40;99.90
18611;DHT22;9435;52.122;5.502;2022-07-29T08:20:03;21.50;99.90
18611;DHT22;9435;52.122;5.502;2022-07-29T08:22:31;21.70;99.90
18611;DHT22;9435;52.122;5.502;2022-07-29T08:24:58;21.60;99.90
18611;DHT22;9435;52.122;5.502;2022-07-29T08:27:25;21.60;99.90
18611;DHT22;9435;52.122;5.502;2022-07-29T08:29:54;21.70;99.90
18611;DHT22;9435;52.122;5.502;2022-07-29T08:32:23;21.90;99.90
18611;DHT22;9435;52.122;5.502;2022-07-29T08:34:50;21.90;99.90
18611;DHT22;9435;52.122;5.502;2022-07-29T08:37:17;21.90;99.90
18611;DHT22;9435;52.122;5.502;2022-07-29T08:39:44;22.10;99.90
18611;DHT22;9435;52.122;5.502;2022-07-29T08:42:11;22.20;99.90
18611;DHT22;9435;52.122;5.502;2022-07-29T08:44:39;22.30;99.90
18611;DHT22;9435;52.122;5.502;2022-07-29T08:47:06;22.50;99.90
18611;DHT22;9435;52.122;5.502;2022-07-29T08:49:35;22.40;99.90
18611;DHT22;9435;52.122;5.502;2022-07-29T08:52:02;23.00;99.90
18611;DHT22;9435;52.122;5.502;2022-07-29T08:54:30;22.50;99.90
18611;DHT22;9435;52.122;5.502;2022-07-29T08:56:57;22.90;99.90
18611;DHT22;9435;52.122;5.502;2022-07-29T08:59:25;22.40;99.90
18611;DHT22;9435;52.122;5.502;2022-07-29T09:01:54;22.70;99.90
18611;DHT22;9435;52.122;5.502;2022-07-29T09:04:21;22.50;99.90
18611;DHT22;9435;52.122;5.502;2022-07-29T09:06:54;22.80;99.90
18611;DHT22;9435;52.122;5.502;2022-07-29T09:09:23;22.40;99.90
18611;DHT22;9435;52.122;5.502;2022-07-29T09:12:08;22.60;99.90
18611;DHT22;9435;52.122;5.502;2022-07-29T09:14:48;22.80;99.90
18611;DHT22;9435;52.122;5.502;2022-07-29T09:17:15;23.00;99.90
18611;DHT22;9435;52.122;5.502;2022-07-29T09:19:43;22.60;99.90
18611;DHT22;9435;52.122;5.502;2022-07-29T09:22:12;22.40;99.90
18611;DHT22;9435;52.122;5.502;2022-07-29T09:24:41;22.60;99.90
18611;DHT22;9435;52.122;5.502;2022-07-29T09:27:11;23.00;99.90
18611;DHT22;9435;52.122;5.502;2022-07-29T09:29:38;23.20;99.90
18611;DHT22;9435;52.122;5.502;2022-07-29T09:32:08;23.50;99.90
18611;DHT22;9435;52.122;5.502;2022-07-29T09:34:36;23.50;99.90
18611;DHT22;9435;52.122;5.502;2022-07-29T09:37:04;23.40;99.90
18611;DHT22;9435;52.122;5.502;2022-07-29T09:39:34;23.30;99.90
18611;DHT22;9435;52.122;5.502;2022-07-29T09:42:03;22.60;99.90
18611;DHT22;9435;52.122;5.502;2022-07-29T09:44:48;22.80;99.90
18611;DHT22;9435;52.122;5.502;2022-07-29T09:47:16;22.90;99.90
18611;DHT22;9435;52.122;5.502;2022-07-29T09:49:54;23.10;99.90
18611;DHT22;9435;52.122;5.502;2022-07-29T09:52:23;23.30;99.90
18611;DHT22;9435;52.122;5.502;2022-07-29T09:54:52;23.00;99.90
18611;DHT22;9435;52.122;5.502;2022-07-29T09:57:24;22.80;99.90
18611;DHT22;9435;52.122;5.502;2022-07-29T09:59:59;22.60;99.90
18611;DHT22;9435;52.122;5.502;2022-07-29T10:02:30;22.60;99.90
18611;DHT22;9435;52.122;5.502;2022-07-29T10:04:59;22.60;99.90
18611;DHT22;9435;52.122;5.502;2022-07-29T10:07:27;22.90;99.90
18611;DHT22;9435;52.122;5.502;2022-07-29T10:10:10;22.80;99.90
18611;DHT22;9435;52.122;5.502;2022-07-29T10:12:50;23.20;99.90
18611;DHT22;9435;52.122;5.502;2022-07-29T10:15:17;23.40;99.90
18611;DHT22;9435;52.122;5.502;2022-07-29T10:17:45;23.00;99.90
18611;DHT22;9435;52.122;5.502;2022-07-29T10:20:12;23.10;99.90
18611;DHT22;9435;52.122;5.502;2022-07-29T10:22:40;23.80;99.90
18611;DHT22;9435;52.122;5.502;2022-07-29T10:25:10;24.30;99.90
18611;DHT22;9435;52.122;5.502;2022-07-29T10:27:37;24.30;99.90
18611;DHT22;9435;52.122;5.502;2022-07-29T10:30:05;24.90;99.90
18611;DHT22;9435;52.122;5.502;2022-07-29T10:32:40;25.30;99.90
18611;DHT22;9435;52.122;5.502;2022-07-29T10:35:32;25.30;99.90
18611;DHT22;9435;52.122;5.502;2022-07-29T10:38:17;25.90;99.90
18611;DHT22;9435;52.122;5.502;2022-07-29T10:40:57;25.40;99.90
18611;DHT22;9435;52.122;5.502;2022-07-29T10:43:46;24.50;99.90
18611;DHT22;9435;52.122;5.502;2022-07-29T10:46:14;24.50;99.90
18611;DHT22;9435;52.122;5.502;2022-07-29T10:49:04;24.60;99.90
18611;DHT22;9435;52.122;5.502;2022-07-29T10:52:00;24.30;99.90
18611;DHT22;9435;52.122;5.502;2022-07-29T10:54:45;24.10;99.90
18611;DHT22;9435;52.122;5.502;2022-07-29T10:57:25;24.70;99.90
18611;DHT22;9435;52.122;5.502;2022-07-29T11:02:53;25.40;99.90
18611;DHT22;9435;52.122;5.502;2022-07-29T11:05:22;25.40;99.90
18611;DHT22;9435;52.122;5.502;2022-07-29T11:08:18;25.10;99.90
18611;DHT22;9435;52.122;5.502;2022-07-29T11:13:48;25.30;99.90
18611;DHT22;9435;52.122;5.502;2022-07-29T11:16:17;24.60;99.90
18611;DHT22;9435;52.122;5.502;2022-07-29T11:19:20;24.80;99.90
18611;DHT22;9435;52.122;5.502;2022-07-29T11:21:48;25.50;99.90
18611;DHT22;9435;52.122;5.502;2022-07-29T11:24:18;25.60;99.90
18611;DHT22;9435;52.122;5.502;2022-07-29T11:27:12;26.10;99.90
18611;DHT22;9435;52.122;5.502;2022-07-29T11:29:49;25.90;99.90
18611;DHT22;9435;52.122;5.502;2022-07-29T11:32:18;25.90;99.90
18611;DHT22;9435;52.122;5.502;2022-07-29T11:34:46;25.90;99.90
18611;DHT22;9435;52.122;5.502;2022-07-29T11:37:23;26.50;99.90
18611;DHT22;9435;52.122;5.502;2022-07-29T11:40:10;26.60;99.90
18611;DHT22;9435;52.122;5.502;2022-07-29T11:42:45;26.80;99.90
18611;DHT22;9435;52.122;5.502;2022-07-29T11:45:15;26.10;99.90
18611;DHT22;9435;52.122;5.502;2022-07-29T11:47:48;26.10;99.90
18611;DHT22;9435;52.122;5.502;2022-07-29T11:50:17;26.30;99.90
18611;DHT22;9435;52.122;5.502;2022-07-29T11:52:46;26.80;99.90
18611;DHT22;9435;52.122;5.502;2022-07-29T11:55:15;27.30;99.90
18611;DHT22;9435;52.122;5.502;2022-07-29T11:57:47;26.50;99.90
18611;DHT22;9435;52.122;5.502;2022-07-29T12:00:24;27.00;99.90
18611;DHT22;9435;52.122;5.502;2022-07-29T12:02:51;27.20;99.90
18611;DHT22;9435;52.122;5.502;2022-07-29T12:05:18;26.60;99.90
18611;DHT22;9435;52.122;5.502;2022-07-29T12:07:46;27.20;99.90
18611;DHT22;9435;52.122;5.502;2022-07-29T12:10:14;27.20;99.90
18611;DHT22;9435;52.122;5.502;2022-07-29T12:12:41;27.30;99.90
18611;DHT22;9435;52.122;5.502;2022-07-29T12:15:16;26.90;99.90
18611;DHT22;9435;52.122;5.502;2022-07-29T12:17:47;26.80;99.90
18611;DHT22;9435;52.122;5.502;2022-07-29T12:20:22;26.90;99.90
18611;DHT22;9435;52.122;5.502;2022-07-29T12:22:49;26.70;99.90
18611;DHT22;9435;52.122;5.502;2022-07-29T12:25:20;26.60;99.90
18611;DHT22;9435;52.122;5.502;2022-07-29T12:27:57;25.90;99.90
18611;DHT22;9435;52.122;5.502;2022-07-29T12:30:35;25.60;99.90
18611;DHT22;9435;52.122;5.502;2022-07-29T12:33:12;25.90;99.90
18611;DHT22;9435;52.122;5.502;2022-07-29T12:35:40;26.60;99.90
18611;DHT22;9435;52.122;5.502;2022-07-29T12:38:09;26.50;99.90
18611;DHT22;9435;52.122;5.502;2022-07-29T12:40:37;26.50;99.90
18611;DHT22;9435;52.122;5.502;2022-07-29T12:43:09;26.60;99.90
18611;DHT22;9435;52.122;5.502;2022-07-29T12:45:37;26.40;99.90
18611;DHT22;9435;52.122;5.502;2022-07-29T12:48:05;26.80;99.90
18611;DHT22;9435;52.122;5.502;2022-07-29T12:50:36;27.30;99.90
18611;DHT22;9435;52.122;5.502;2022-07-29T12:53:11;27.50;99.90
18611;DHT22;9435;52.122;5.502;2022-07-29T12:55:40;27.20;99.90
18611;DHT22;9435;52.122;5.502;2022-07-29T12:58:08;27.30;99.90
18611;DHT22;9435;52.122;5.502;2022-07-29T13:00:35;26.90;99.90
18611;DHT22;9435;52.122;5.502;2022-07-29T13:03:02;26.90;99.90
18611;DHT22;9435;52.122;5.502;2022-07-29T13:05:44;27.20;99.90
18611;DHT22;9435;52.122;5.502;2022-07-29T13:08:13;27.10;99.90
18611;DHT22;9435;52.122;5.502;2022-07-29T13:10:40;27.40;99.90
18611;DHT22;9435;52.122;5.502;2022-07-29T13:13:09;27.30;99.90
18611;DHT22;9435;52.122;5.502;2022-07-29T13:15:36;27.50;99.90
18611;DHT22;9435;52.122;5.502;2022-07-29T13:18:04;26.70;99.90
18611;DHT22;9435;52.122;5.502;2022-07-29T13:20:32;26.70;99.90
18611;DHT22;9435;52.122;5.502;2022-07-29T13:23:01;26.70;99.90
18611;DHT22;9435;52.122;5.502;2022-07-29T13:25:29;26.90;99.90
18611;DHT22;9435;52.122;5.502;2022-07-29T13:27:58;26.70;99.90
18611;DHT22;9435;52.122;5.502;2022-07-29T13:30:25;26.70;99.90
18611;DHT22;9435;52.122;5.502;2022-07-29T13:32:52;26.70;99.90
18611;DHT22;9435;52.122;5.502;2022-07-29T13:35:20;26.40;99.90
18611;DHT22;9435;52.122;5.502;2022-07-29T13:37:47;25.90;99.90
18611;DHT22;9435;52.122;5.502;2022-07-29T13:40:16;26.10;99.90
18611;DHT22;9435;52.122;5.502;2022-07-29T13:42:43;26.30;99.90
18611;DHT22;9435;52.122;5.502;2022-07-29T13:45:11;26.20;99.90
18611;DHT22;9435;52.122;5.502;2022-07-29T13:47:38;26.00;99.90
18611;DHT22;9435;52.122;5.502;2022-07-29T13:50:07;25.80;99.90
18611;DHT22;9435;52.122;5.502;2022-07-29T13:52:35;25.90;99.90
18611;DHT22;9435;52.122;5.502;2022-07-29T13:55:04;26.20;99.90
18611;DHT22;9435;52.122;5.502;2022-07-29T13:57:33;26.40;99.90
18611;DHT22;9435;52.122;5.502;2022-07-29T14:00:01;26.50;99.90
18611;DHT22;9435;52.122;5.502;2022-07-29T14:02:28;25.90;99.90
18611;DHT22;9435;52.122;5.502;2022-07-29T14:04:55;25.90;99.90
18611;DHT22;9435;52.122;5.502;2022-07-29T14:07:22;26.00;99.90
18611;DHT22;9435;52.122;5.502;2022-07-29T14:09:50;26.30;99.90
18611;DHT22;9435;52.122;5.502;2022-07-29T14:12:19;25.70;99.90
18611;DHT22;9435;52.122;5.502;2022-07-29T14:14:47;25.70;99.90
18611;DHT22;9435;52.122;5.502;2022-07-29T14:17:15;25.90;99.90
18611;DHT22;9435;52.122;5.502;2022-07-29T14:19:42;26.10;99.90
18611;DHT22;9435;52.122;5.502;2022-07-29T14:22:09;25.80;99.90
18611;DHT22;9435;52.122;5.502;2022-07-29T14:24:37;25.40;99.90
18611;DHT22;9435;52.122;5.502;2022-07-29T14:27:04;25.60;99.90
18611;DHT22;9435;52.122;5.502;2022-07-29T14:29:31;25.70;99.90
18611;DHT22;9435;52.122;5.502;2022-07-29T14:32:00;25.40;99.90
18611;DHT22;9435;52.122;5.502;2022-07-29T14:34:27;25.30;99.90
18611;DHT22;9435;52.122;5.502;2022-07-29T14:36:54;25.10;99.90
18611;DHT22;9435;52.122;5.502;2022-07-29T14:39:21;25.30;99.90
18611;DHT22;9435;52.122;5.502;2022-07-29T14:41:48;25.30;99.90
18611;DHT22;9435;52.122;5.502;2022-07-29T14:44:16;25.60;99.90
18611;DHT22;9435;52.122;5.502;2022-07-29T14:46:43;25.60;99.90
18611;DHT22;9435;52.122;5.502;2022-07-29T14:49:11;25.60;99.90
18611;DHT22;9435;52.122;5.502;2022-07-29T14:51:39;25.80;99.90
18611;DHT22;9435;52.122;5.502;2022-07-29T14:54:06;25.90;99.90
18611;DHT22;9435;52.122;5.502;2022-07-29T14:56:33;25.70;99.90
18611;DHT22;9435;52.122;5.502;2022-07-29T14:59:01;25.70;99.90
18611;DHT22;9435;52.122;5.502;2022-07-29T15:01:29;25.90;99.90
18611;DHT22;9435;52.122;5.502;2022-07-29T15:03:56;25.90;99.90
18611;DHT22;9435;52.122;5.502;2022-07-29T15:06:24;25.90;99.90
18611;DHT22;9435;52.122;5.502;2022-07-29T15:08:51;25.80;99.90
18611;DHT22;9435;52.122;5.502;2022-07-29T15:11:21;25.40;99.90
18611;DHT22;9435;52.122;5.502;2022-07-29T15:13:48;25.30;99.90
18611;DHT22;9435;52.122;5.502;2022-07-29T15:16:14;25.40;99.90
18611;DHT22;9435;52.122;5.502;2022-07-29T15:18:42;25.30;99.90
18611;DHT22;9435;52.122;5.502;2022-07-29T15:21:09;25.40;99.90
18611;DHT22;9435;52.122;5.502;2022-07-29T15:23:37;25.40;99.90
18611;DHT22;9435;52.122;5.502;2022-07-29T15:26:04;25.30;99.90
18611;DHT22;9435;52.122;5.502;2022-07-29T15:28:31;25.20;99.90
18611;DHT22;9435;52.122;5.502;2022-07-29T15:30:58;25.40;99.90
18611;DHT22;9435;52.122;5.502;2022-07-29T15:33:25;25.40;99.90
18611;DHT22;9435;52.122;5.502;2022-07-29T15:35:53;25.50;99.90
18611;DHT22;9435;52.122;5.502;2022-07-29T15:38:20;25.60;99.90
18611;DHT22;9435;52.122;5.502;2022-07-29T15:40:48;25.80;99.90
18611;DHT22;9435;52.122;5.502;2022-07-29T15:43:15;25.60;99.90
18611;DHT22;9435;52.122;5.502;2022-07-29T15:45:42;25.60;99.90
18611;DHT22;9435;52.122;5.502;2022-07-29T15:48:30;25.60;99.90
18611;DHT22;9435;52.122;5.502;2022-07-29T15:50:58;25.40;99.90
18611;DHT22;9435;52.122;5.502;2022-07-29T15:53:26;25.40;99.90
18611;DHT22;9435;52.122;5.502;2022-07-29T15:55:54;25.20;99.90
18611;DHT22;9435;52.122;5.502;2022-07-29T15:58:21;24.90;99.90
18611;DHT22;9435;52.122;5.502;2022-07-29T16:00:48;24.70;99.90
18611;DHT22;9435;52.122;5.502;2022-07-29T16:03:16;24.90;99.90
18611;DHT22;9435;52.122;5.502;2022-07-29T16:05:44;25.00;99.90